sensor_id;sensor_type;location;lat;lon;timestamp;P1;durP1;ratioP1;P2;durP2;ratioP2
33987;SDS011;37428;53.580;-1.666;2024-02-15T00:01:30;2.88;;;2.03;;
33987;SDS011;37428;53.580;-1.666;2024-02-15T00:04:33;2.65;;;2.45;;
33987;SDS011;37428;53.580;-1.666;2024-02-15T00:07:36;3.70;;;2.20;;
33987;SDS011;37428;53.580;-1.666;2024-02-15T00:10:38;3.00;;;2.50;;
33987;SDS011;37428;53.580;-1.666;2024-02-15T00:13:42;3.05;;;2.83;;
33987;SDS011;37428;53.580;-1.666;2024-02-15T00:16:44;4.07;;;2.60;;
33987;SDS011;37428;53.580;-1.666;2024-02-15T00:19:48;4.18;;;2.72;;
33987;SDS011;37428;53.580;-1.666;2024-02-15T00:22:50;3.03;;;2.70;;
33987;SDS011;37428;53.580;-1.666;2024-02-15T00:26:07;3.55;;;2.85;;
33987;SDS011;37428;53.580;-1.666;2024-02-15T00:29:12;5.55;;;3.75;;
33987;SDS011;37428;53.580;-1.666;2024-02-15T00:32:16;3.83;;;3.53;;
33987;SDS011;37428;53.580;-1.666;2024-02-15T00:35:19;4.57;;;4.13;;
33987;SDS011;37428;53.580;-1.666;2024-02-15T00:38:23;7.45;;;6.07;;
33987;SDS011;37428;53.580;-1.666;2024-02-15T00:41:27;9.98;;;9.02;;
33987;SDS011;37428;53.580;-1.666;2024-02-15T00:44:30;13.10;;;11.88;;
33987;SDS011;37428;53.580;-1.666;2024-02-15T00:47:33;15.82;;;14.30;;
33987;SDS011;37428;53.580;-1.666;2024-02-15T00:50:39;19.42;;;17.50;;
33987;SDS011;37428;53.580;-1.666;2024-02-15T00:53:43;17.52;;;15.93;;
33987;SDS011;37428;53.580;-1.666;2024-02-15T00:56:45;16.42;;;14.75;;
33987;SDS011;37428;53.580;-1.666;2024-02-15T00:59:49;15.75;;;14.25;;
33987;SDS011;37428;53.580;-1.666;2024-02-15T01:02:52;17.30;;;15.57;;
33987;SDS011;37428;53.580;-1.666;2024-02-15T01:05:55;17.60;;;15.80;;
33987;SDS011;37428;53.580;-1.666;2024-02-15T01:08:58;16.55;;;14.73;;
33987;SDS011;37428;53.580;-1.666;2024-02-15T01:12:03;18.17;;;14.63;;
33987;SDS011;37428;53.580;-1.666;2024-02-15T01:15:05;17.33;;;15.60;;
33987;SDS011;37428;53.580;-1.666;2024-02-15T01:18:08;16.23;;;14.65;;
33987;SDS011;37428;53.580;-1.666;2024-02-15T01:21:12;14.80;;;13.15;;
33987;SDS011;37428;53.580;-1.666;2024-02-15T01:24:16;17.83;;;16.13;;
33987;SDS011;37428;53.580;-1.666;2024-02-15T01:27:18;18.90;;;16.50;;
33987;SDS011;37428;53.580;-1.666;2024-02-15T01:30:21;19.30;;;17.35;;
33987;SDS011;37428;53.580;-1.666;2024-02-15T01:33:23;18.75;;;16.83;;
33987;SDS011;37428;53.580;-1.666;2024-02-15T01:36:27;17.98;;;16.30;;
33987;SDS011;37428;53.580;-1.666;2024-02-15T01:39:29;14.77;;;13.38;;
33987;SDS011;37428;53.580;-1.666;2024-02-15T01:42:31;14.13;;;12.90;;
33987;SDS011;37428;53.580;-1.666;2024-02-15T01:45:33;13.57;;;12.27;;
33987;SDS011;37428;53.580;-1.666;2024-02-15T01:48:37;12.80;;;11.52;;
33987;SDS011;37428;53.580;-1.666;2024-02-15T01:51:43;10.95;;;9.98;;
33987;SDS011;37428;53.580;-1.666;2024-02-15T01:54:46;9.50;;;8.70;;
33987;SDS011;37428;53.580;-1.666;2024-02-15T01:57:50;5.88;;;5.10;;
33987;SDS011;37428;53.580;-1.666;2024-02-15T02:00:54;4.55;;;4.15;;
33987;SDS011;37428;53.580;-1.666;2024-02-15T02:04:04;3.95;;;3.42;;
33987;SDS011;37428;53.580;-1.666;2024-02-15T02:07:09;2.90;;;2.70;;
33987;SDS011;37428;53.580;-1.666;2024-02-15T02:10:12;2.60;;;2.40;;
33987;SDS011;37428;53.580;-1.666;2024-02-15T02:13:14;2.50;;;2.33;;
33987;SDS011;37428;53.580;-1.666;2024-02-15T02:16:31;3.00;;;2.63;;
33987;SDS011;37428;53.580;-1.666;2024-02-15T02:19:37;2.95;;;2.53;;
33987;SDS011;37428;53.580;-1.666;2024-02-15T02:22:41;2.65;;;2.10;;
33987;SDS011;37428;53.580;-1.666;2024-02-15T02:25:51;2.10;;;1.92;;
33987;SDS011;37428;53.580;-1.666;2024-02-15T02:28:54;2.30;;;1.75;;
33987;SDS011;37428;53.580;-1.666;2024-02-15T02:31:56;2.05;;;1.38;;
33987;SDS011;37428;53.580;-1.666;2024-02-15T02:34:59;1.40;;;1.20;;
33987;SDS011;37428;53.580;-1.666;2024-02-15T02:38:01;1.88;;;1.15;;
33987;SDS011;37428;53.580;-1.666;2024-02-15T02:41:09;1.67;;;1.13;;
33987;SDS011;37428;53.580;-1.666;2024-02-15T02:44:11;1.38;;;0.93;;
33987;SDS011;37428;53.580;-1.666;2024-02-15T02:47:13;1.45;;;0.90;;
33987;SDS011;37428;53.580;-1.666;2024-02-15T02:50:18;1.67;;;0.80;;
33987;SDS011;37428;53.580;-1.666;2024-02-15T02:53:25;3.15;;;0.93;;
33987;SDS011;37428;53.580;-1.666;2024-02-15T02:56:30;1.92;;;1.00;;
33987;SDS011;37428;53.580;-1.666;2024-02-15T02:59:35;1.05;;;0.98;;
33987;SDS011;37428;53.580;-1.666;2024-02-15T03:02:40;2.75;;;1.10;;
33987;SDS011;37428;53.580;-1.666;2024-02-15T03:05:43;2.25;;;0.85;;
33987;SDS011;37428;53.580;-1.666;2024-02-15T03:08:47;1.70;;;0.80;;
33987;SDS011;37428;53.580;-1.666;2024-02-15T03:11:51;4.53;;;2.10;;
33987;SDS011;37428;53.580;-1.666;2024-02-15T03:14:53;5.70;;;1.10;;
33987;SDS011;37428;53.580;-1.666;2024-02-15T03:17:58;2.13;;;0.77;;
33987;SDS011;37428;53.580;-1.666;2024-02-15T03:21:00;4.78;;;0.70;;
33987;SDS011;37428;53.580;-1.666;2024-02-15T03:24:02;2.38;;;0.70;;
33987;SDS011;37428;53.580;-1.666;2024-02-15T03:30:11;1.13;;;0.88;;
33987;SDS011;37428;53.580;-1.666;2024-02-15T03:33:14;3.50;;;1.00;;
33987;SDS011;37428;53.580;-1.666;2024-02-15T03:36:30;4.60;;;0.90;;
33987;SDS011;37428;53.580;-1.666;2024-02-15T03:39:33;4.03;;;0.88;;
33987;SDS011;37428;53.580;-1.666;2024-02-15T03:42:50;4.07;;;0.95;;
33987;SDS011;37428;53.580;-1.666;2024-02-15T03:45:52;1.17;;;0.52;;
33987;SDS011;37428;53.580;-1.666;2024-02-15T03:48:55;1.83;;;0.70;;
33987;SDS011;37428;53.580;-1.666;2024-02-15T03:52:02;1.42;;;0.63;;
33987;SDS011;37428;53.580;-1.666;2024-02-15T03:55:09;1.10;;;0.68;;
33987;SDS011;37428;53.580;-1.666;2024-02-15T03:58:12;2.45;;;0.60;;
33987;SDS011;37428;53.580;-1.666;2024-02-15T04:01:15;2.05;;;0.75;;
33987;SDS011;37428;53.580;-1.666;2024-02-15T04:04:17;2.40;;;0.73;;
33987;SDS011;37428;53.580;-1.666;2024-02-15T04:07:21;0.65;;;0.43;;
33987;SDS011;37428;53.580;-1.666;2024-02-15T04:10:24;2.55;;;0.60;;
33987;SDS011;37428;53.580;-1.666;2024-02-15T04:13:28;2.65;;;0.70;;
33987;SDS011;37428;53.580;-1.666;2024-02-15T04:16:33;3.42;;;0.80;;
33987;SDS011;37428;53.580;-1.666;2024-02-15T04:19:38;3.00;;;0.52;;
33987;SDS011;37428;53.580;-1.666;2024-02-15T04:22:41;1.73;;;0.65;;
33987;SDS011;37428;53.580;-1.666;2024-02-15T04:25:47;1.95;;;0.60;;
33987;SDS011;37428;53.580;-1.666;2024-02-15T04:28:53;0.60;;;0.40;;
33987;SDS011;37428;53.580;-1.666;2024-02-15T04:32:12;1.15;;;0.55;;
33987;SDS011;37428;53.580;-1.666;2024-02-15T04:35:18;1.10;;;0.68;;
33987;SDS011;37428;53.580;-1.666;2024-02-15T04:38:22;1.50;;;0.65;;
33987;SDS011;37428;53.580;-1.666;2024-02-15T04:41:27;1.40;;;0.70;;
33987;SDS011;37428;53.580;-1.666;2024-02-15T04:44:31;0.68;;;0.68;;
33987;SDS011;37428;53.580;-1.666;2024-02-15T04:47:35;0.90;;;0.65;;
33987;SDS011;37428;53.580;-1.666;2024-02-15T04:50:39;1.30;;;0.55;;
33987;SDS011;37428;53.580;-1.666;2024-02-15T04:53:43;0.85;;;0.85;;
33987;SDS011;37428;53.580;-1.666;2024-02-15T04:56:46;0.40;;;0.30;;
33987;SDS011;37428;53.580;-1.666;2024-02-15T04:59:51;2.25;;;0.60;;
33987;SDS011;37428;53.580;-1.666;2024-02-15T05:02:54;1.60;;;0.70;;
33987;SDS011;37428;53.580;-1.666;2024-02-15T05:05:56;1.30;;;0.60;;
33987;SDS011;37428;53.580;-1.666;2024-02-15T05:09:01;0.82;;;0.75;;
33987;SDS011;37428;53.580;-1.666;2024-02-15T05:12:07;1.13;;;0.60;;
33987;SDS011;37428;53.580;-1.666;2024-02-15T05:15:11;1.27;;;0.80;;
33987;SDS011;37428;53.580;-1.666;2024-02-15T05:18:14;1.45;;;1.17;;
33987;SDS011;37428;53.580;-1.666;2024-02-15T05:21:18;1.02;;;1.00;;
33987;SDS011;37428;53.580;-1.666;2024-02-15T05:24:23;2.30;;;1.92;;
33987;SDS011;37428;53.580;-1.666;2024-02-15T05:27:27;2.03;;;1.80;;
33987;SDS011;37428;53.580;-1.666;2024-02-15T05:30:30;1.65;;;1.55;;
33987;SDS011;37428;53.580;-1.666;2024-02-15T05:33:33;3.88;;;2.47;;
33987;SDS011;37428;53.580;-1.666;2024-02-15T05:39:38;2.63;;;2.42;;
33987;SDS011;37428;53.580;-1.666;2024-02-15T05:42:43;3.85;;;3.10;;
33987;SDS011;37428;53.580;-1.666;2024-02-15T05:45:47;6.28;;;3.10;;
33987;SDS011;37428;53.580;-1.666;2024-02-15T05:48:54;3.85;;;3.22;;
33987;SDS011;37428;53.580;-1.666;2024-02-15T05:52:02;4.20;;;3.75;;
33987;SDS011;37428;53.580;-1.666;2024-02-15T05:55:19;6.88;;;6.20;;
33987;SDS011;37428;53.580;-1.666;2024-02-15T05:58:23;10.68;;;9.77;;
33987;SDS011;37428;53.580;-1.666;2024-02-15T06:01:28;14.98;;;13.57;;
33987;SDS011;37428;53.580;-1.666;2024-02-15T06:04:36;18.40;;;16.65;;
33987;SDS011;37428;53.580;-1.666;2024-02-15T06:07:40;18.75;;;16.83;;
33987;SDS011;37428;53.580;-1.666;2024-02-15T06:10:44;18.60;;;16.70;;
33987;SDS011;37428;53.580;-1.666;2024-02-15T06:13:48;18.58;;;16.85;;
33987;SDS011;37428;53.580;-1.666;2024-02-15T06:16:52;14.98;;;13.63;;
33987;SDS011;37428;53.580;-1.666;2024-02-15T06:19:56;14.55;;;13.10;;
33987;SDS011;37428;53.580;-1.666;2024-02-15T06:22:59;12.60;;;11.50;;
33987;SDS011;37428;53.580;-1.666;2024-02-15T06:26:17;12.77;;;11.60;;
33987;SDS011;37428;53.580;-1.666;2024-02-15T06:29:40;12.48;;;11.48;;
33987;SDS011;37428;53.580;-1.666;2024-02-15T06:33:00;10.50;;;9.60;;
33987;SDS011;37428;53.580;-1.666;2024-02-15T06:36:39;8.35;;;7.55;;
33987;SDS011;37428;53.580;-1.666;2024-02-15T06:39:59;7.75;;;7.22;;
33987;SDS011;37428;53.580;-1.666;2024-02-15T06:43:01;6.50;;;6.10;;
33987;SDS011;37428;53.580;-1.666;2024-02-15T06:46:06;5.50;;;5.00;;
33987;SDS011;37428;53.580;-1.666;2024-02-15T06:49:13;5.05;;;4.70;;
33987;SDS011;37428;53.580;-1.666;2024-02-15T06:52:15;5.28;;;4.88;;
33987;SDS011;37428;53.580;-1.666;2024-02-15T06:55:17;4.38;;;3.97;;
33987;SDS011;37428;53.580;-1.666;2024-02-15T06:58:22;4.40;;;4.10;;
33987;SDS011;37428;53.580;-1.666;2024-02-15T07:01:24;3.53;;;3.22;;
33987;SDS011;37428;53.580;-1.666;2024-02-15T07:04:28;4.65;;;4.25;;
33987;SDS011;37428;53.580;-1.666;2024-02-15T07:07:32;5.07;;;4.40;;
33987;SDS011;37428;53.580;-1.666;2024-02-15T07:13:40;4.38;;;4.07;;
33987;SDS011;37428;53.580;-1.666;2024-02-15T07:16:50;4.80;;;3.60;;
33987;SDS011;37428;53.580;-1.666;2024-02-15T07:19:55;3.63;;;3.22;;
33987;SDS011;37428;53.580;-1.666;2024-02-15T07:22:57;3.47;;;3.28;;
33987;SDS011;37428;53.580;-1.666;2024-02-15T07:26:01;4.13;;;3.00;;
33987;SDS011;37428;53.580;-1.666;2024-02-15T07:29:04;2.10;;;2.00;;
33987;SDS011;37428;53.580;-1.666;2024-02-15T07:32:07;2.20;;;2.00;;
33987;SDS011;37428;53.580;-1.666;2024-02-15T07:35:11;2.60;;;1.60;;
33987;SDS011;37428;53.580;-1.666;2024-02-15T07:38:17;3.25;;;1.17;;
33987;SDS011;37428;53.580;-1.666;2024-02-15T07:41:24;2.58;;;1.20;;
33987;SDS011;37428;53.580;-1.666;2024-02-15T07:44:28;2.83;;;1.20;;
33987;SDS011;37428;53.580;-1.666;2024-02-15T07:47:32;2.13;;;1.42;;
33987;SDS011;37428;53.580;-1.666;2024-02-15T07:50:35;3.83;;;1.33;;
33987;SDS011;37428;53.580;-1.666;2024-02-15T07:53:40;1.88;;;1.33;;
33987;SDS011;37428;53.580;-1.666;2024-02-15T07:56:44;3.22;;;1.35;;
33987;SDS011;37428;53.580;-1.666;2024-02-15T07:59:47;3.72;;;1.20;;
33987;SDS011;37428;53.580;-1.666;2024-02-15T08:02:50;4.15;;;1.00;;
33987;SDS011;37428;53.580;-1.666;2024-02-15T08:05:55;1.95;;;0.90;;
33987;SDS011;37428;53.580;-1.666;2024-02-15T08:08:57;3.97;;;1.13;;
33987;SDS011;37428;53.580;-1.666;2024-02-15T08:11:59;3.78;;;1.60;;
33987;SDS011;37428;53.580;-1.666;2024-02-15T08:15:03;2.65;;;1.25;;
33987;SDS011;37428;53.580;-1.666;2024-02-15T08:18:10;4.82;;;1.30;;
33987;SDS011;37428;53.580;-1.666;2024-02-15T08:21:14;3.75;;;1.70;;
33987;SDS011;37428;53.580;-1.666;2024-02-15T08:24:16;2.70;;;1.58;;
33987;SDS011;37428;53.580;-1.666;2024-02-15T08:27:19;3.83;;;1.77;;
33987;SDS011;37428;53.580;-1.666;2024-02-15T08:30:21;2.15;;;1.02;;
33987;SDS011;37428;53.580;-1.666;2024-02-15T08:33:24;2.84;;;1.52;;
33987;SDS011;37428;53.580;-1.666;2024-02-15T08:36:30;5.50;;;1.83;;
33987;SDS011;37428;53.580;-1.666;2024-02-15T08:39:34;3.10;;;1.30;;
33987;SDS011;37428;53.580;-1.666;2024-02-15T08:42:37;4.43;;;1.70;;
33987;SDS011;37428;53.580;-1.666;2024-02-15T08:45:41;4.93;;;1.65;;
33987;SDS011;37428;53.580;-1.666;2024-02-15T08:48:45;2.00;;;1.80;;
33987;SDS011;37428;53.580;-1.666;2024-02-15T08:51:49;1.40;;;1.25;;
33987;SDS011;37428;53.580;-1.666;2024-02-15T08:54:51;3.95;;;1.70;;
33987;SDS011;37428;53.580;-1.666;2024-02-15T08:57:54;3.60;;;2.00;;
33987;SDS011;37428;53.580;-1.666;2024-02-15T09:00:59;2.80;;;1.65;;
33987;SDS011;37428;53.580;-1.666;2024-02-15T09:04:03;3.33;;;2.00;;
33987;SDS011;37428;53.580;-1.666;2024-02-15T09:10:09;3.33;;;1.42;;
33987;SDS011;37428;53.580;-1.666;2024-02-15T09:16:14;3.42;;;1.83;;
33987;SDS011;37428;53.580;-1.666;2024-02-15T09:19:16;4.60;;;1.98;;
33987;SDS011;37428;53.580;-1.666;2024-02-15T09:22:20;2.72;;;1.60;;
33987;SDS011;37428;53.580;-1.666;2024-02-15T09:25:22;3.55;;;1.70;;
33987;SDS011;37428;53.580;-1.666;2024-02-15T09:31:27;4.88;;;1.83;;
33987;SDS011;37428;53.580;-1.666;2024-02-15T09:34:29;2.10;;;1.90;;
33987;SDS011;37428;53.580;-1.666;2024-02-15T09:37:35;3.47;;;2.00;;
33987;SDS011;37428;53.580;-1.666;2024-02-15T09:40:40;4.10;;;2.13;;
33987;SDS011;37428;53.580;-1.666;2024-02-15T09:43:43;4.25;;;1.60;;
33987;SDS011;37428;53.580;-1.666;2024-02-15T09:46:46;6.25;;;1.60;;
33987;SDS011;37428;53.580;-1.666;2024-02-15T09:49:51;3.17;;;1.52;;
33987;SDS011;37428;53.580;-1.666;2024-02-15T09:52:55;6.65;;;1.95;;
33987;SDS011;37428;53.580;-1.666;2024-02-15T09:56:00;4.05;;;2.50;;
33987;SDS011;37428;53.580;-1.666;2024-02-15T09:59:04;4.97;;;1.80;;
33987;SDS011;37428;53.580;-1.666;2024-02-15T10:02:07;1.80;;;1.70;;
33987;SDS011;37428;53.580;-1.666;2024-02-15T10:05:10;3.08;;;1.60;;
33987;SDS011;37428;53.580;-1.666;2024-02-15T10:08:14;5.05;;;1.95;;
33987;SDS011;37428;53.580;-1.666;2024-02-15T10:11:17;2.42;;;1.58;;
33987;SDS011;37428;53.580;-1.666;2024-02-15T10:14:20;4.70;;;2.08;;
33987;SDS011;37428;53.580;-1.666;2024-02-15T10:17:23;2.22;;;1.80;;
33987;SDS011;37428;53.580;-1.666;2024-02-15T10:20:26;6.85;;;1.95;;
33987;SDS011;37428;53.580;-1.666;2024-02-15T10:23:30;3.42;;;2.10;;
33987;SDS011;37428;53.580;-1.666;2024-02-15T10:26:32;5.88;;;1.98;;
33987;SDS011;37428;53.580;-1.666;2024-02-15T10:29:35;3.42;;;1.65;;
33987;SDS011;37428;53.580;-1.666;2024-02-15T10:32:37;6.95;;;1.73;;
33987;SDS011;37428;53.580;-1.666;2024-02-15T10:35:45;4.15;;;1.40;;
33987;SDS011;37428;53.580;-1.666;2024-02-15T10:38:49;2.42;;;1.55;;
33987;SDS011;37428;53.580;-1.666;2024-02-15T10:41:52;6.20;;;1.75;;
33987;SDS011;37428;53.580;-1.666;2024-02-15T10:44:55;5.32;;;2.28;;
33987;SDS011;37428;53.580;-1.666;2024-02-15T10:47:57;2.47;;;1.77;;
33987;SDS011;37428;53.580;-1.666;2024-02-15T10:51:09;4.63;;;1.80;;
33987;SDS011;37428;53.580;-1.666;2024-02-15T10:54:15;3.85;;;1.75;;
33987;SDS011;37428;53.580;-1.666;2024-02-15T10:57:31;2.92;;;1.77;;
33987;SDS011;37428;53.580;-1.666;2024-02-15T11:00:34;1.83;;;1.08;;
33987;SDS011;37428;53.580;-1.666;2024-02-15T11:03:40;4.70;;;2.17;;
33987;SDS011;37428;53.580;-1.666;2024-02-15T11:06:49;3.60;;;1.63;;
33987;SDS011;37428;53.580;-1.666;2024-02-15T11:09:57;3.65;;;1.58;;
33987;SDS011;37428;53.580;-1.666;2024-02-15T11:13:00;3.28;;;1.52;;
33987;SDS011;37428;53.580;-1.666;2024-02-15T11:16:03;4.30;;;1.30;;
33987;SDS011;37428;53.580;-1.666;2024-02-15T11:22:10;2.67;;;1.58;;
33987;SDS011;37428;53.580;-1.666;2024-02-15T11:25:16;1.92;;;1.20;;
33987;SDS011;37428;53.580;-1.666;2024-02-15T11:28:37;2.47;;;1.17;;
33987;SDS011;37428;53.580;-1.666;2024-02-15T11:35:02;6.28;;;1.75;;
33987;SDS011;37428;53.580;-1.666;2024-02-15T11:38:11;5.57;;;1.50;;
33987;SDS011;37428;53.580;-1.666;2024-02-15T11:41:30;2.40;;;1.63;;
33987;SDS011;37428;53.580;-1.666;2024-02-15T11:44:35;4.40;;;1.70;;
33987;SDS011;37428;53.580;-1.666;2024-02-15T11:47:37;3.80;;;1.75;;
33987;SDS011;37428;53.580;-1.666;2024-02-15T11:50:42;2.33;;;1.17;;
33987;SDS011;37428;53.580;-1.666;2024-02-15T11:56:52;1.77;;;1.47;;
33987;SDS011;37428;53.580;-1.666;2024-02-15T12:00:10;5.22;;;2.00;;
33987;SDS011;37428;53.580;-1.666;2024-02-15T12:03:40;2.00;;;1.17;;
33987;SDS011;37428;53.580;-1.666;2024-02-15T12:07:00;4.10;;;1.60;;
33987;SDS011;37428;53.580;-1.666;2024-02-15T12:10:20;11.85;;;2.10;;
33987;SDS011;37428;53.580;-1.666;2024-02-15T12:13:42;4.47;;;1.73;;
33987;SDS011;37428;53.580;-1.666;2024-02-15T12:17:01;5.07;;;1.90;;
33987;SDS011;37428;53.580;-1.666;2024-02-15T12:20:21;2.80;;;1.60;;
33987;SDS011;37428;53.580;-1.666;2024-02-15T12:23:26;2.90;;;1.33;;
33987;SDS011;37428;53.580;-1.666;2024-02-15T12:26:28;2.35;;;1.25;;
33987;SDS011;37428;53.580;-1.666;2024-02-15T12:29:36;3.47;;;1.35;;
33987;SDS011;37428;53.580;-1.666;2024-02-15T12:32:38;7.38;;;1.77;;
33987;SDS011;37428;53.580;-1.666;2024-02-15T12:35:46;4.32;;;2.20;;
33987;SDS011;37428;53.580;-1.666;2024-02-15T12:38:58;6.53;;;1.67;;
33987;SDS011;37428;53.580;-1.666;2024-02-15T12:42:01;6.10;;;1.50;;
33987;SDS011;37428;53.580;-1.666;2024-02-15T12:45:05;3.65;;;1.50;;
33987;SDS011;37428;53.580;-1.666;2024-02-15T12:48:08;2.33;;;1.27;;
33987;SDS011;37428;53.580;-1.666;2024-02-15T12:51:15;2.40;;;1.13;;
33987;SDS011;37428;53.580;-1.666;2024-02-15T12:54:19;7.75;;;1.45;;
33987;SDS011;37428;53.580;-1.666;2024-02-15T12:57:22;3.20;;;1.08;;
33987;SDS011;37428;53.580;-1.666;2024-02-15T13:00:27;5.03;;;1.60;;
33987;SDS011;37428;53.580;-1.666;2024-02-15T13:03:39;4.78;;;1.17;;
33987;SDS011;37428;53.580;-1.666;2024-02-15T13:06:41;4.80;;;1.58;;
33987;SDS011;37428;53.580;-1.666;2024-02-15T13:09:43;3.53;;;1.27;;
33987;SDS011;37428;53.580;-1.666;2024-02-15T13:12:45;3.25;;;1.50;;
33987;SDS011;37428;53.580;-1.666;2024-02-15T13:15:51;4.10;;;2.13;;
33987;SDS011;37428;53.580;-1.666;2024-02-15T13:18:54;2.80;;;1.35;;
33987;SDS011;37428;53.580;-1.666;2024-02-15T13:21:58;5.38;;;1.88;;
33987;SDS011;37428;53.580;-1.666;2024-02-15T13:25:00;3.97;;;1.65;;
33987;SDS011;37428;53.580;-1.666;2024-02-15T13:28:03;2.35;;;0.95;;
33987;SDS011;37428;53.580;-1.666;2024-02-15T13:31:07;3.75;;;1.00;;
33987;SDS011;37428;53.580;-1.666;2024-02-15T13:34:11;6.57;;;1.60;;
33987;SDS011;37428;53.580;-1.666;2024-02-15T13:37:13;5.43;;;1.17;;
33987;SDS011;37428;53.580;-1.666;2024-02-15T13:40:17;4.25;;;1.00;;
33987;SDS011;37428;53.580;-1.666;2024-02-15T13:43:23;6.18;;;1.15;;
33987;SDS011;37428;53.580;-1.666;2024-02-15T13:46:26;4.63;;;1.15;;
33987;SDS011;37428;53.580;-1.666;2024-02-15T13:49:29;5.95;;;1.60;;
33987;SDS011;37428;53.580;-1.666;2024-02-15T13:52:31;4.05;;;1.98;;
33987;SDS011;37428;53.580;-1.666;2024-02-15T13:55:34;6.93;;;2.08;;
33987;SDS011;37428;53.580;-1.666;2024-02-15T13:58:37;3.30;;;0.90;;
33987;SDS011;37428;53.580;-1.666;2024-02-15T14:01:40;7.03;;;2.05;;
33987;SDS011;37428;53.580;-1.666;2024-02-15T14:04:45;5.63;;;2.80;;
33987;SDS011;37428;53.580;-1.666;2024-02-15T14:07:47;6.65;;;1.98;;
33987;SDS011;37428;53.580;-1.666;2024-02-15T14:10:50;4.22;;;1.52;;
33987;SDS011;37428;53.580;-1.666;2024-02-15T14:13:52;3.58;;;2.10;;
33987;SDS011;37428;53.580;-1.666;2024-02-15T14:16:59;5.75;;;3.38;;
33987;SDS011;37428;53.580;-1.666;2024-02-15T14:20:05;3.33;;;1.50;;
33987;SDS011;37428;53.580;-1.666;2024-02-15T14:23:13;6.88;;;3.38;;
33987;SDS011;37428;53.580;-1.666;2024-02-15T14:26:15;5.20;;;2.45;;
33987;SDS011;37428;53.580;-1.666;2024-02-15T14:29:18;9.18;;;2.30;;
33987;SDS011;37428;53.580;-1.666;2024-02-15T14:32:24;6.53;;;2.03;;
33987;SDS011;37428;53.580;-1.666;2024-02-15T14:35:44;4.85;;;2.03;;
33987;SDS011;37428;53.580;-1.666;2024-02-15T14:38:47;12.70;;;6.97;;
33987;SDS011;37428;53.580;-1.666;2024-02-15T14:41:49;8.52;;;3.00;;
33987;SDS011;37428;53.580;-1.666;2024-02-15T14:44:51;16.08;;;8.35;;
33987;SDS011;37428;53.580;-1.666;2024-02-15T14:50:57;10.50;;;5.30;;
33987;SDS011;37428;53.580;-1.666;2024-02-15T14:53:59;10.63;;;5.80;;
33987;SDS011;37428;53.580;-1.666;2024-02-15T14:57:02;7.18;;;3.58;;
33987;SDS011;37428;53.580;-1.666;2024-02-15T15:00:05;5.30;;;2.33;;
33987;SDS011;37428;53.580;-1.666;2024-02-15T15:03:18;4.70;;;1.48;;
33987;SDS011;37428;53.580;-1.666;2024-02-15T15:06:22;5.18;;;1.98;;
33987;SDS011;37428;53.580;-1.666;2024-02-15T15:09:44;4.07;;;2.03;;
33987;SDS011;37428;53.580;-1.666;2024-02-15T15:13:14;7.20;;;3.53;;
33987;SDS011;37428;53.580;-1.666;2024-02-15T15:16:19;7.05;;;3.08;;
33987;SDS011;37428;53.580;-1.666;2024-02-15T15:19:25;8.00;;;2.42;;
33987;SDS011;37428;53.580;-1.666;2024-02-15T15:22:27;7.45;;;3.63;;
33987;SDS011;37428;53.580;-1.666;2024-02-15T15:25:30;3.47;;;2.13;;
33987;SDS011;37428;53.580;-1.666;2024-02-15T15:28:33;5.57;;;1.98;;
33987;SDS011;37428;53.580;-1.666;2024-02-15T15:31:35;5.63;;;2.13;;
33987;SDS011;37428;53.580;-1.666;2024-02-15T15:34:40;7.18;;;2.20;;
33987;SDS011;37428;53.580;-1.666;2024-02-15T15:37:42;8.95;;;3.25;;
33987;SDS011;37428;53.580;-1.666;2024-02-15T15:40:44;6.03;;;2.20;;
33987;SDS011;37428;53.580;-1.666;2024-02-15T15:43:46;5.97;;;2.63;;
33987;SDS011;37428;53.580;-1.666;2024-02-15T15:46:50;5.95;;;1.60;;
33987;SDS011;37428;53.580;-1.666;2024-02-15T15:49:54;5.18;;;1.45;;
33987;SDS011;37428;53.580;-1.666;2024-02-15T15:52:58;5.30;;;1.63;;
33987;SDS011;37428;53.580;-1.666;2024-02-15T15:56:00;4.18;;;1.63;;
33987;SDS011;37428;53.580;-1.666;2024-02-15T15:59:03;3.25;;;1.17;;
33987;SDS011;37428;53.580;-1.666;2024-02-15T16:02:06;2.95;;;1.30;;
33987;SDS011;37428;53.580;-1.666;2024-02-15T16:05:12;3.65;;;1.92;;
33987;SDS011;37428;53.580;-1.666;2024-02-15T16:08:16;3.72;;;1.15;;
33987;SDS011;37428;53.580;-1.666;2024-02-15T16:11:20;3.20;;;1.75;;
33987;SDS011;37428;53.580;-1.666;2024-02-15T16:14:22;4.70;;;1.52;;
33987;SDS011;37428;53.580;-1.666;2024-02-15T16:17:28;3.15;;;1.40;;
33987;SDS011;37428;53.580;-1.666;2024-02-15T16:20:36;5.00;;;1.50;;
33987;SDS011;37428;53.580;-1.666;2024-02-15T16:23:38;5.88;;;1.80;;
33987;SDS011;37428;53.580;-1.666;2024-02-15T16:26:40;2.90;;;1.65;;
33987;SDS011;37428;53.580;-1.666;2024-02-15T16:29:44;5.88;;;2.00;;
33987;SDS011;37428;53.580;-1.666;2024-02-15T16:32:47;6.60;;;2.33;;
33987;SDS011;37428;53.580;-1.666;2024-02-15T16:35:50;15.13;;;9.52;;
33987;SDS011;37428;53.580;-1.666;2024-02-15T16:38:53;17.52;;;13.07;;
33987;SDS011;37428;53.580;-1.666;2024-02-15T16:41:55;7.78;;;4.60;;
33987;SDS011;37428;53.580;-1.666;2024-02-15T16:44:57;6.82;;;3.40;;
33987;SDS011;37428;53.580;-1.666;2024-02-15T16:48:00;11.60;;;7.65;;
33987;SDS011;37428;53.580;-1.666;2024-02-15T16:51:08;4.13;;;3.70;;
33987;SDS011;37428;53.580;-1.666;2024-02-15T16:54:10;6.40;;;3.25;;
33987;SDS011;37428;53.580;-1.666;2024-02-15T16:57:12;7.03;;;5.50;;
33987;SDS011;37428;53.580;-1.666;2024-02-15T17:00:16;5.88;;;3.38;;
33987;SDS011;37428;53.580;-1.666;2024-02-15T17:03:19;5.47;;;2.03;;
33987;SDS011;37428;53.580;-1.666;2024-02-15T17:09:24;7.03;;;2.45;;
33987;SDS011;37428;53.580;-1.666;2024-02-15T17:12:27;5.82;;;2.42;;
33987;SDS011;37428;53.580;-1.666;2024-02-15T17:15:29;4.07;;;2.05;;
33987;SDS011;37428;53.580;-1.666;2024-02-15T17:18:31;10.10;;;2.58;;
33987;SDS011;37428;53.580;-1.666;2024-02-15T17:21:40;4.78;;;1.92;;
33987;SDS011;37428;53.580;-1.666;2024-02-15T17:24:44;5.05;;;2.33;;
33987;SDS011;37428;53.580;-1.666;2024-02-15T17:27:46;6.00;;;2.63;;
33987;SDS011;37428;53.580;-1.666;2024-02-15T17:30:50;7.50;;;2.67;;
33987;SDS011;37428;53.580;-1.666;2024-02-15T17:33:52;5.30;;;2.15;;
33987;SDS011;37428;53.580;-1.666;2024-02-15T17:36:56;5.00;;;2.20;;
33987;SDS011;37428;53.580;-1.666;2024-02-15T17:39:59;4.70;;;2.50;;
33987;SDS011;37428;53.580;-1.666;2024-02-15T17:43:07;4.88;;;2.28;;
33987;SDS011;37428;53.580;-1.666;2024-02-15T17:46:09;4.70;;;2.40;;
33987;SDS011;37428;53.580;-1.666;2024-02-15T17:49:12;6.20;;;2.33;;
33987;SDS011;37428;53.580;-1.666;2024-02-15T17:52:15;7.03;;;2.85;;
33987;SDS011;37428;53.580;-1.666;2024-02-15T17:55:18;5.93;;;2.35;;
33987;SDS011;37428;53.580;-1.666;2024-02-15T17:58:20;6.97;;;2.03;;
33987;SDS011;37428;53.580;-1.666;2024-02-15T18:01:22;5.18;;;1.98;;
33987;SDS011;37428;53.580;-1.666;2024-02-15T18:04:26;9.55;;;2.42;;
33987;SDS011;37428;53.580;-1.666;2024-02-15T18:07:32;5.82;;;2.55;;
33987;SDS011;37428;53.580;-1.666;2024-02-15T18:10:35;6.57;;;3.28;;
33987;SDS011;37428;53.580;-1.666;2024-02-15T18:13:37;6.45;;;3.13;;
33987;SDS011;37428;53.580;-1.666;2024-02-15T18:16:40;15.27;;;8.40;;
33987;SDS011;37428;53.580;-1.666;2024-02-15T18:19:42;7.30;;;3.42;;
33987;SDS011;37428;53.580;-1.666;2024-02-15T18:25:48;5.20;;;2.15;;
33987;SDS011;37428;53.580;-1.666;2024-02-15T18:31:52;5.25;;;3.45;;
33987;SDS011;37428;53.580;-1.666;2024-02-15T18:34:55;5.85;;;2.22;;
33987;SDS011;37428;53.580;-1.666;2024-02-15T18:37:59;5.60;;;3.85;;
33987;SDS011;37428;53.580;-1.666;2024-02-15T18:41:01;4.68;;;2.13;;
33987;SDS011;37428;53.580;-1.666;2024-02-15T18:44:05;3.60;;;1.80;;
33987;SDS011;37428;53.580;-1.666;2024-02-15T18:47:07;4.18;;;1.55;;
33987;SDS011;37428;53.580;-1.666;2024-02-15T18:50:10;7.15;;;2.15;;
33987;SDS011;37428;53.580;-1.666;2024-02-15T18:53:13;4.95;;;2.53;;